createdAt,value
2016-10-21T00:00:55.740Z,0
2016-10-21T00:02:06.031Z,0
2016-10-21T00:03:16.303Z,0
2016-10-21T00:04:26.582Z,0
2016-10-21T00:05:36.552Z,0
2016-10-21T00:06:46.864Z,0
2016-10-21T00:07:57.130Z,0
2016-10-21T00:09:06.798Z,0
2016-10-21T00:10:17.108Z,0
2016-10-21T00:11:27.078Z,0
2016-10-21T00:12:37.366Z,0
2016-10-21T00:13:47.034Z,0
2016-10-21T00:14:56.714Z,0
2016-10-21T00:16:06.696Z,0
2016-10-21T00:17:16.687Z,0
2016-10-21T00:18:26.662Z,0
2016-10-21T00:19:36.953Z,0
2016-10-21T00:20:47.523Z,0
2016-10-21T00:21:57.497Z,0
2016-10-21T00:23:07.784Z,0
2016-10-21T00:24:18.065Z,0
2016-10-21T00:25:27.742Z,0
2016-10-21T00:26:38.022Z,0
2016-10-21T00:27:48.309Z,0
2016-10-21T00:28:57.967Z,0
2016-10-21T00:30:07.951Z,0
2016-10-21T00:31:18.239Z,0
2016-10-21T00:32:28.515Z,0
2016-10-21T00:33:38.797Z,0
2016-10-21T00:34:48.193Z,0
2016-10-21T00:35:58.476Z,0
2016-10-21T00:37:08.748Z,0
2016-10-21T00:38:19.020Z,0
2016-10-21T00:39:29.311Z,0
2016-10-21T00:40:39.587Z,0
2016-10-21T00:41:49.589Z,0
2016-10-21T00:42:59.870Z,0
2016-10-21T00:44:10.152Z,0
2016-10-21T00:45:20.127Z,0
2016-10-21T00:46:29.789Z,0
2016-10-21T00:47:39.773Z,0
2016-10-21T00:48:50.061Z,0
2016-10-21T00:50:00.023Z,0
2016-10-21T00:51:09.697Z,0
2016-10-21T00:52:19.677Z,0
2016-10-21T00:53:29.649Z,0
2016-10-21T00:54:39.323Z,0
2016-10-21T00:55:49.609Z,0
2016-10-21T00:56:59.892Z,0
2016-10-21T00:58:09.558Z,0
2016-10-21T00:59:19.839Z,0
2016-10-21T01:00:30.124Z,0
2016-10-21T01:01:39.807Z,0
2016-10-21T01:02:49.783Z,0
2016-10-21T01:04:00.061Z,0
2016-10-21T01:05:10.343Z,0
2016-10-21T01:06:20.004Z,0
2016-10-21T01:07:29.695Z,0
2016-10-21T01:08:39.981Z,0
2016-10-21T01:09:50.284Z,0
2016-10-21T01:11:00.246Z,0
2016-10-21T01:12:10.238Z,0
2016-10-21T01:13:20.204Z,0
2016-10-21T01:14:30.186Z,0
2016-10-21T01:15:40.165Z,0
2016-10-21T01:16:50.444Z,0
2016-10-21T01:18:00.421Z,0
2016-10-21T01:19:10.706Z,0
2016-10-21T01:20:20.690Z,0
2016-10-21T01:21:30.974Z,0
2016-10-21T01:22:41.253Z,0
2016-10-21T01:23:50.954Z,0
2016-10-21T01:25:01.236Z,0
2016-10-21T01:26:10.908Z,0
2016-10-21T01:27:20.926Z,0
2016-10-21T01:28:31.227Z,0
2016-10-21T01:29:41.203Z,0
2016-10-21T01:30:50.255Z,0
2016-10-21T01:32:00.542Z,0
2016-10-21T01:33:10.517Z,0
2016-10-21T01:34:20.484Z,0
2016-10-21T01:35:30.782Z,0
2016-10-21T01:36:40.494Z,0
2016-10-21T01:37:50.775Z,0
2016-10-21T01:39:00.448Z,0
2016-10-21T01:40:10.721Z,0
2016-10-21T01:41:20.696Z,0
2016-10-21T01:42:30.678Z,0
2016-10-21T01:43:40.649Z,0
2016-10-21T01:44:50.619Z,0
2016-10-21T01:46:00.297Z,0
2016-10-21T01:47:10.289Z,0
2016-10-21T01:48:20.256Z,0
2016-10-21T01:49:30.541Z,0
2016-10-21T01:50:40.823Z,0
2016-10-21T01:51:51.116Z,0
2016-10-21T01:53:01.403Z,0
2016-10-21T01:54:10.825Z,0
2016-10-21T01:55:20.490Z,0
2016-10-21T01:56:30.455Z,0
2016-10-21T01:57:40.745Z,0
2016-10-21T01:58:51.041Z,0
2016-10-21T02:00:00.712Z,0
2016-10-21T02:01:10.993Z,0
2016-10-21T02:02:20.989Z,0
2016-10-21T02:03:30.962Z,0
2016-10-21T02:04:40.331Z,0
2016-10-21T02:05:50.311Z,0
2016-10-21T02:07:00.589Z,0
2016-10-21T02:08:10.264Z,0
2016-10-21T02:09:20.230Z,0
2016-10-21T02:10:30.233Z,0
2016-10-21T02:11:40.210Z,0
2016-10-21T02:12:50.172Z,0
2016-10-21T02:14:00.473Z,0
2016-10-21T02:15:10.464Z,0
2016-10-21T02:16:20.758Z,0
2016-10-21T02:17:31.044Z,0
2016-10-21T02:18:41.366Z,0
2016-10-21T02:19:51.326Z,0
2016-10-21T02:21:01.320Z,0
2016-10-21T02:22:11.330Z,0
2016-10-21T02:23:21.009Z,0
2016-10-21T02:24:31.338Z,0
2016-10-21T02:25:41.660Z,0
2016-10-21T02:26:51.632Z,0
2016-10-21T02:28:01.920Z,0
2016-10-21T02:29:12.265Z,0
2016-10-21T02:30:21.917Z,0
2016-10-21T02:31:31.891Z,0
2016-10-21T02:32:42.165Z,0
2016-10-21T02:33:52.141Z,0
2016-10-21T02:35:01.814Z,0
2016-10-21T02:36:12.141Z,0
2016-10-21T02:37:22.116Z,0
2016-10-21T02:38:32.084Z,0
2016-10-21T02:39:42.049Z,0
2016-10-21T02:40:52.336Z,0
2016-10-21T02:42:02.623Z,0
2016-10-21T02:43:12.306Z,0
2016-10-21T02:44:22.268Z,0
2016-10-21T02:45:32.254Z,0
2016-10-21T02:46:41.921Z,0
2016-10-21T02:47:51.889Z,0
2016-10-21T02:49:01.558Z,0
2016-10-21T02:50:11.839Z,0
2016-10-21T02:51:22.127Z,0
2016-10-21T02:52:32.102Z,0
2016-10-21T02:53:42.086Z,0
2016-10-21T02:54:52.077Z,0
2016-10-21T02:56:02.093Z,0
2016-10-21T02:57:12.387Z,0
2016-10-21T02:58:22.700Z,0
2016-10-21T02:59:32.694Z,0
2016-10-21T03:00:42.965Z,0
2016-10-21T03:33:04.811Z,0
2016-10-21T03:34:15.095Z,0
2016-10-21T03:35:25.085Z,0
2016-10-21T03:36:35.352Z,0
2016-10-21T03:37:45.614Z,0
2016-10-21T03:38:55.932Z,0
2016-10-21T03:40:05.929Z,0
2016-10-21T03:41:16.214Z,0
2016-10-21T03:42:26.496Z,0
2016-10-21T03:43:36.460Z,0
2016-10-21T03:44:46.741Z,0
2016-10-21T03:45:57.066Z,0
2016-10-21T03:47:07.352Z,0
2016-10-21T03:48:17.308Z,0
2016-10-21T03:49:27.287Z,0
2016-10-21T03:50:37.252Z,0
2016-10-21T03:51:47.544Z,0
2016-10-21T03:52:57.822Z,0
2016-10-21T03:54:07.793Z,0
2016-10-21T03:55:17.490Z,0
2016-10-21T03:56:27.455Z,0
2016-10-21T03:57:37.733Z,0
2016-10-21T03:58:48.015Z,0
2016-10-21T03:59:58.293Z,0
2016-10-21T04:01:08.579Z,0
2016-10-21T04:02:18.862Z,0
2016-10-21T04:03:29.141Z,0
2016-10-21T04:04:39.104Z,0
2016-10-21T04:05:49.095Z,0
2016-10-21T04:06:59.407Z,0
2016-10-21T04:08:09.733Z,0
2016-10-21T04:09:18.785Z,0
2016-10-21T04:10:29.301Z,0
2016-10-21T04:11:39.272Z,0
2016-10-21T04:12:49.540Z,0
2016-10-21T04:13:59.807Z,0
2016-10-21T04:15:10.136Z,0
2016-10-21T04:16:19.815Z,0
2016-10-21T04:17:29.790Z,0
2016-10-21T04:18:39.767Z,0
2016-10-21T04:19:50.045Z,0
2016-10-21T04:21:00.325Z,0
2016-10-21T04:22:09.988Z,0
2016-10-21T04:23:20.270Z,0
2016-10-21T04:24:30.242Z,0
2016-10-21T04:25:40.209Z,0
2016-10-21T04:26:50.197Z,0
2016-10-21T04:28:00.495Z,0
2016-10-21T04:29:10.477Z,0
2016-10-21T04:30:20.133Z,0
2016-10-21T04:31:30.111Z,0
2016-10-21T04:32:40.087Z,0
2016-10-21T04:33:50.056Z,0
2016-10-21T04:35:00.016Z,0
2016-10-21T04:36:10.302Z,0
2016-10-21T04:37:20.585Z,0
2016-10-21T04:38:30.557Z,0
2016-10-21T04:39:40.233Z,0
2016-10-21T04:40:50.211Z,0
2016-10-21T04:42:00.181Z,0
2016-10-21T04:43:10.454Z,0
2016-10-21T04:44:20.480Z,0
2016-10-21T04:45:30.747Z,0
2016-10-21T04:46:41.019Z,0
2016-10-21T04:47:50.994Z,0
2016-10-21T04:49:00.962Z,0
2016-10-21T04:50:10.939Z,0
2016-10-21T04:51:21.216Z,0
2016-10-21T04:52:31.506Z,0
2016-10-21T04:53:41.784Z,0
2016-10-21T04:54:51.439Z,0
2016-10-21T04:56:01.416Z,0
2016-10-21T04:57:11.389Z,0
2016-10-21T04:58:21.666Z,0
2016-10-21T04:59:31.629Z,0
2016-10-21T05:00:41.293Z,0
2016-10-21T05:01:51.571Z,0
2016-10-21T05:03:01.852Z,0
2016-10-21T05:04:11.205Z,0
2016-10-21T05:05:21.170Z,0
2016-10-21T05:06:31.451Z,0
2016-10-21T05:07:41.413Z,0
2016-10-21T05:08:51.367Z,0
2016-10-21T05:10:01.652Z,0
2016-10-21T05:11:11.634Z,0
2016-10-21T05:12:21.591Z,0
2016-10-21T05:13:31.569Z,0
2016-10-21T05:14:41.544Z,0
2016-10-21T05:15:51.215Z,0
2016-10-21T05:17:01.178Z,0
2016-10-21T05:18:11.136Z,0
2016-10-21T05:19:21.417Z,0
2016-10-21T05:20:31.383Z,0
2016-10-21T05:21:41.354Z,0
2016-10-21T05:22:51.637Z,0
2016-10-21T05:24:01.617Z,0
2016-10-21T05:25:11.886Z,0
2016-10-21T05:26:21.861Z,0
2016-10-21T05:27:32.143Z,0
2016-10-21T05:28:42.430Z,0
2016-10-21T05:29:52.401Z,0
2016-10-21T05:31:02.689Z,0
2016-10-21T05:32:12.681Z,0
2016-10-21T05:33:22.968Z,0
2016-10-21T05:34:32.929Z,0
2016-10-21T05:35:42.596Z,0
2016-10-21T05:36:52.575Z,0
2016-10-21T05:38:02.859Z,0
2016-10-21T05:39:13.152Z,0
2016-10-21T05:40:22.813Z,0
2016-10-21T05:41:33.089Z,0
2016-10-21T05:42:43.369Z,5
2016-10-21T05:43:53.654Z,5
2016-10-21T05:45:03.314Z,5
2016-10-21T05:46:13.586Z,5
2016-10-21T05:47:23.562Z,5
2016-10-21T05:48:33.843Z,5
2016-10-21T05:49:43.810Z,5
2016-10-21T05:50:53.474Z,5
2016-10-21T05:52:03.790Z,5
2016-10-21T05:53:14.061Z,5
2016-10-21T05:54:24.033Z,5
2016-10-21T05:55:34.004Z,10
2016-10-21T05:56:43.985Z,10
2016-10-21T05:57:54.268Z,10
2016-10-21T05:59:04.561Z,10
2016-10-21T06:00:14.845Z,10
2016-10-21T06:01:25.129Z,15
2016-10-21T06:02:35.404Z,15
2016-10-21T06:03:45.694Z,15
2016-10-21T06:04:55.664Z,15
2016-10-21T06:06:05.976Z,15
2016-10-21T06:07:15.950Z,15
2016-10-21T06:08:26.233Z,15
2016-10-21T06:09:36.198Z,15
2016-10-21T06:10:46.476Z,20
2016-10-21T06:11:56.438Z,20
2016-10-21T06:13:06.420Z,20
2016-10-21T06:14:16.096Z,15
2016-10-21T06:15:25.773Z,20
2016-10-21T06:16:35.746Z,20
2016-10-21T06:17:46.023Z,20
2016-10-21T06:18:56.301Z,20
2016-10-21T06:20:06.606Z,20
2016-10-21T06:21:16.892Z,20
2016-10-21T06:22:26.867Z,20
2016-10-21T06:23:37.136Z,20
2016-10-21T06:24:47.117Z,20
2016-10-21T06:25:57.432Z,20
2016-10-21T06:27:07.101Z,20
2016-10-21T06:28:17.377Z,25
2016-10-21T06:29:27.670Z,25
2016-10-21T06:30:37.660Z,30
2016-10-21T06:31:47.333Z,30
2016-10-21T06:32:57.614Z,30
2016-10-21T06:34:07.895Z,30
2016-10-21T06:35:18.178Z,30
2016-10-21T06:36:28.445Z,30
2016-10-21T06:37:38.722Z,30
2016-10-21T06:38:48.994Z,30
2016-10-21T06:39:59.293Z,30
2016-10-21T06:41:09.600Z,35
2016-10-21T06:42:18.943Z,35
2016-10-21T06:43:29.328Z,35
2016-10-21T06:44:39.602Z,35
2016-10-21T06:45:49.921Z,35
2016-10-21T06:47:00.199Z,35
2016-10-21T06:48:10.480Z,35
2016-10-21T06:49:20.152Z,35
2016-10-21T06:50:30.679Z,35
2016-10-21T06:51:40.967Z,30
2016-10-21T06:52:51.291Z,30
2016-10-21T06:54:01.588Z,30
2016-10-21T06:55:11.868Z,25
2016-10-21T06:56:22.193Z,25
2016-10-21T06:57:32.164Z,25
2016-10-21T06:58:42.146Z,25
2016-10-21T06:59:52.118Z,25
2016-10-21T07:01:02.085Z,30
2016-10-21T07:02:12.370Z,30
2016-10-21T07:03:22.043Z,35
2016-10-21T07:04:32.020Z,30
2016-10-21T07:05:42.340Z,30
2016-10-21T07:06:52.614Z,30
2016-10-21T07:08:02.909Z,30
2016-10-21T07:09:12.931Z,30
2016-10-21T07:10:23.209Z,35
2016-10-21T07:11:33.515Z,35
2016-10-21T07:12:43.803Z,40
2016-10-21T07:13:54.091Z,40
2016-10-21T07:15:04.390Z,45
2016-10-21T07:16:14.667Z,50
2016-10-21T07:17:24.943Z,50
2016-10-21T07:18:35.225Z,55
2016-10-21T07:19:45.511Z,55
2016-10-21T07:20:55.507Z,60
2016-10-21T07:22:05.794Z,65
2016-10-21T07:23:15.471Z,70
2016-10-21T07:24:25.147Z,75
2016-10-21T07:25:35.126Z,80
2016-10-21T07:26:45.102Z,80
2016-10-21T07:27:55.389Z,80
2016-10-21T07:29:05.070Z,75
2016-10-21T07:30:15.366Z,80
2016-10-21T07:31:25.344Z,80
2016-10-21T07:32:35.335Z,80
2016-10-21T07:33:45.617Z,80
2016-10-21T07:34:55.612Z,80
2016-10-21T07:36:05.890Z,75
2016-10-21T07:37:15.906Z,75
2016-10-21T07:38:26.193Z,75
2016-10-21T07:39:36.200Z,80
2016-10-21T07:40:46.477Z,70
2016-10-21T07:41:56.147Z,65
2016-10-21T07:43:06.440Z,65
2016-10-21T07:44:16.761Z,60
2016-10-21T07:45:27.053Z,55
2016-10-21T07:46:37.034Z,50
2016-10-21T07:47:47.320Z,50
2016-10-21T07:48:57.642Z,50
2016-10-21T07:50:07.917Z,50
2016-10-21T07:51:17.890Z,50
2016-10-21T07:52:27.876Z,55
2016-10-21T07:53:37.849Z,60
2016-10-21T07:54:47.825Z,60
2016-10-21T07:55:58.112Z,65
2016-10-21T07:57:07.777Z,70
2016-10-21T07:58:17.769Z,75
2016-10-21T07:59:28.060Z,75
2016-10-21T08:00:38.356Z,80
2016-10-21T08:01:48.365Z,80
2016-10-21T08:02:58.647Z,85
2016-10-21T08:04:08.970Z,90
2016-10-21T08:05:18.952Z,90
2016-10-21T08:06:28.923Z,90
2016-10-21T08:07:39.217Z,90
2016-10-21T08:08:49.503Z,95
2016-10-21T08:09:59.487Z,100
2016-10-21T08:11:09.470Z,105
2016-10-21T08:12:19.142Z,110
2016-10-21T08:13:29.343Z,115
2016-10-21T08:14:39.336Z,115
2016-10-21T08:15:49.626Z,115
2016-10-21T08:16:59.301Z,110
2016-10-21T08:18:08.965Z,105
2016-10-21T08:19:19.245Z,100
2016-10-21T08:20:29.542Z,100
2016-10-21T08:21:39.834Z,100
2016-10-21T08:22:49.816Z,90
2016-10-21T08:23:59.489Z,85
2016-10-21T08:25:09.185Z,85
2016-10-21T08:26:19.497Z,80
2016-10-21T08:27:29.808Z,75
2016-10-21T08:28:40.100Z,75
2016-10-21T08:29:49.780Z,75
2016-10-21T08:31:00.061Z,70
2016-10-21T08:32:10.077Z,70
2016-10-21T08:33:20.391Z,75
2016-10-21T08:34:30.669Z,75
2016-10-21T08:35:40.958Z,80
2016-10-21T08:36:50.967Z,80
2016-10-21T08:38:01.257Z,80
2016-10-21T08:39:11.584Z,85
2016-10-21T08:40:21.451Z,90
2016-10-21T08:41:37.487Z,90
2016-10-21T08:42:54.642Z,95
2016-10-21T08:44:09.568Z,95
2016-10-21T08:45:22.233Z,95
2016-10-21T08:46:35.573Z,95
2016-10-21T08:47:45.346Z,95
2016-10-21T08:49:01.400Z,95
2016-10-21T08:50:12.086Z,100
2016-10-21T08:51:22.391Z,95
2016-10-21T08:52:32.073Z,85
2016-10-21T08:53:42.091Z,85
2016-10-21T08:54:52.401Z,85
2016-10-21T08:56:02.118Z,85
2016-10-21T08:57:11.855Z,85
2016-10-21T08:58:22.165Z,85
2016-10-21T08:59:32.456Z,90
2016-10-21T09:00:42.507Z,95
2016-10-21T09:01:52.799Z,100
2016-10-21T09:03:03.186Z,110
2016-10-21T09:04:13.528Z,115
2016-10-21T09:05:24.100Z,120
2016-10-21T09:06:34.136Z,120
2016-10-21T09:07:44.470Z,125
2016-10-21T09:08:54.233Z,140
2016-10-21T09:10:04.264Z,150
2016-10-21T09:11:14.286Z,160
2016-10-21T09:12:24.265Z,180
2016-10-21T09:13:34.569Z,190
2016-10-21T09:14:44.552Z,195
2016-10-21T09:15:54.529Z,190
2016-10-21T09:17:04.524Z,195
2016-10-21T09:18:14.828Z,200
2016-10-21T09:19:24.823Z,200
2016-10-21T09:20:34.798Z,185
2016-10-21T09:21:44.781Z,165
2016-10-21T09:22:54.749Z,165
2016-10-21T09:24:05.046Z,160
2016-10-21T09:25:15.335Z,160
2016-10-21T09:26:25.636Z,165
2016-10-21T09:27:35.934Z,160
2016-10-21T09:28:46.261Z,155
2016-10-21T09:29:56.552Z,160
2016-10-21T09:31:06.234Z,155
2016-10-21T09:32:16.250Z,150
2016-10-21T09:33:25.948Z,145
2016-10-21T09:34:35.630Z,140
2016-10-21T09:35:45.960Z,140
2016-10-21T09:36:56.250Z,140
2016-10-21T09:38:06.566Z,140
2016-10-21T09:39:16.872Z,140
2016-10-21T09:40:26.603Z,140
2016-10-21T09:41:36.911Z,140
2016-10-21T09:42:47.227Z,140
2016-10-21T09:43:57.506Z,140
2016-10-21T09:45:07.494Z,145
2016-10-21T09:46:17.787Z,145
2016-10-21T09:47:28.084Z,150
2016-10-21T09:48:37.459Z,150
2016-10-21T09:49:47.814Z,155
2016-10-21T09:50:58.120Z,160
2016-10-21T09:52:08.422Z,160
2016-10-21T09:53:18.413Z,165
2016-10-21T09:54:28.385Z,170
2016-10-21T09:55:38.371Z,180
2016-10-21T09:56:48.675Z,185
2016-10-21T09:57:58.993Z,190
2016-10-21T09:59:09.321Z,190
2016-10-21T10:00:19.332Z,195
2016-10-21T10:01:29.669Z,195
2016-10-21T10:02:39.674Z,190
2016-10-21T10:03:49.661Z,180
2016-10-21T10:04:59.653Z,175
2016-10-21T10:06:09.635Z,175
2016-10-21T10:07:19.327Z,170
2016-10-21T10:08:29.635Z,175
2016-10-21T10:09:39.625Z,180
2016-10-21T10:10:49.919Z,170
2016-10-21T10:12:00.228Z,175
2016-10-21T10:13:10.536Z,170
2016-10-21T10:14:20.818Z,170
2016-10-21T10:15:31.098Z,180
2016-10-21T10:16:41.094Z,185
2016-10-21T10:17:51.081Z,190
2016-10-21T10:19:01.375Z,195
2016-10-21T10:20:11.384Z,200
2016-10-21T10:21:22.007Z,200
2016-10-21T10:22:32.304Z,200
2016-10-21T10:23:42.316Z,205
2016-10-21T10:24:52.321Z,205
2016-10-21T10:26:02.344Z,205
2016-10-21T10:27:12.641Z,200
2016-10-21T10:28:22.622Z,200
2016-10-21T10:29:32.920Z,195
2016-10-21T10:30:43.258Z,195
2016-10-21T10:31:53.560Z,195
2016-10-21T10:33:03.555Z,195
2016-10-21T10:34:13.574Z,190
2016-10-21T10:35:23.877Z,190
2016-10-21T10:36:34.185Z,200
2016-10-21T10:37:43.565Z,195
2016-10-21T10:38:53.624Z,200
2016-10-21T10:40:03.934Z,210
2016-10-21T10:41:13.625Z,220
2016-10-21T10:42:23.637Z,220
2016-10-21T10:43:34.009Z,225
2016-10-21T10:44:44.320Z,230
2016-10-21T10:45:54.324Z,225
2016-10-21T10:47:04.616Z,220
2016-10-21T10:48:14.916Z,225
2016-10-21T10:49:25.244Z,225
2016-10-21T10:50:35.299Z,240
2016-10-21T10:51:45.354Z,240
2016-10-21T10:52:55.720Z,235
2016-10-21T10:54:06.064Z,240
2016-10-21T10:55:16.410Z,250
2016-10-21T10:56:26.743Z,260
2016-10-21T10:57:37.076Z,260
2016-10-21T10:58:47.395Z,260
2016-10-21T10:59:57.705Z,250
2016-10-21T11:01:07.699Z,225
2016-10-21T11:02:18.011Z,220
2016-10-21T11:03:27.394Z,215
2016-10-21T11:04:37.714Z,210
2016-10-21T11:05:47.431Z,210
2016-10-21T11:06:57.459Z,220
2016-10-21T11:08:07.745Z,225
2016-10-21T11:09:17.452Z,240
2016-10-21T11:10:27.764Z,215
2016-10-21T11:11:37.756Z,205
2016-10-21T11:12:48.086Z,200
2016-10-21T11:13:57.779Z,195
2016-10-21T11:15:08.095Z,185
2016-10-21T11:16:18.153Z,180
2016-10-21T11:17:28.155Z,175
2016-10-21T11:18:38.449Z,170
2016-10-21T11:19:48.448Z,165
2016-10-21T11:20:58.468Z,165
2016-10-21T11:22:08.506Z,165
2016-10-21T11:23:18.512Z,165
2016-10-21T11:24:28.220Z,165
2016-10-21T11:25:38.512Z,170
2016-10-21T11:26:48.852Z,170
2016-10-21T11:27:58.841Z,180
2016-10-21T11:29:09.148Z,185
2016-10-21T11:30:19.490Z,185
2016-10-21T11:31:29.218Z,185
2016-10-21T11:32:39.545Z,185
2016-10-21T11:33:49.855Z,180
2016-10-21T11:34:59.842Z,175
2016-10-21T11:36:10.188Z,170
2016-10-21T11:37:20.182Z,170
2016-10-21T11:38:30.521Z,170
2016-10-21T11:39:40.834Z,180
2016-10-21T11:40:50.836Z,180
2016-10-21T11:42:01.159Z,185
2016-10-21T11:43:11.158Z,195
2016-10-21T11:44:21.477Z,200
2016-10-21T11:45:31.469Z,205
2016-10-21T11:46:41.460Z,210
2016-10-21T11:47:51.373Z,210
2016-10-21T11:49:01.400Z,205
2016-10-21T11:50:11.403Z,200
2016-10-21T11:51:21.397Z,200
2016-10-21T11:52:31.390Z,190
2016-10-21T11:53:41.394Z,175
2016-10-21T11:54:51.419Z,170
2016-10-21T11:56:01.733Z,160
2016-10-21T11:57:11.733Z,160
2016-10-21T11:58:21.729Z,155
2016-10-21T11:59:31.733Z,155
2016-10-21T12:00:42.062Z,155
2016-10-21T12:01:52.379Z,150
2016-10-21T12:03:02.070Z,150
2016-10-21T12:04:12.382Z,150
2016-10-21T12:05:22.681Z,150
2016-10-21T12:06:32.680Z,155
2016-10-21T12:07:42.706Z,160
2016-10-21T12:08:53.058Z,160
2016-10-21T12:10:03.076Z,165
2016-10-21T12:11:12.464Z,175
2016-10-21T12:12:22.459Z,175
2016-10-21T12:13:32.796Z,185
2016-10-21T12:14:43.111Z,180
2016-10-21T12:15:53.434Z,185
2016-10-21T12:17:03.140Z,185
2016-10-21T12:18:13.149Z,190
2016-10-21T12:19:23.131Z,190
2016-10-21T12:20:33.509Z,190
2016-10-21T12:21:43.831Z,190
2016-10-21T12:22:54.126Z,195
2016-10-21T12:24:04.680Z,195
2016-10-21T12:25:14.680Z,195
2016-10-21T12:26:24.670Z,200
2016-10-21T12:27:34.674Z,195
2016-10-21T12:28:45.000Z,200
2016-10-21T12:29:55.005Z,200
2016-10-21T12:31:05.351Z,205
2016-10-21T12:32:14.729Z,205
2016-10-21T12:33:24.732Z,205
2016-10-21T12:34:34.402Z,200
2016-10-21T12:35:44.709Z,185
2016-10-21T12:36:54.699Z,175
2016-10-21T12:38:05.006Z,170
2016-10-21T12:39:15.339Z,160
2016-10-21T12:40:25.690Z,165
2016-10-21T12:41:35.698Z,155
2016-10-21T12:42:46.004Z,155
2016-10-21T12:43:56.328Z,160
2016-10-21T12:45:06.313Z,200
2016-10-21T12:46:16.338Z,210
2016-10-21T12:47:26.649Z,190
2016-10-21T12:48:36.655Z,195
2016-10-21T12:49:46.669Z,215
2016-10-21T12:50:56.985Z,235
2016-10-21T12:52:07.323Z,250
2016-10-21T12:53:17.012Z,245
2016-10-21T12:54:26.700Z,255
2016-10-21T12:55:36.699Z,265
2016-10-21T12:56:46.714Z,260
2016-10-21T12:57:56.744Z,220
2016-10-21T12:59:06.742Z,215
2016-10-21T13:00:16.782Z,220
2016-10-21T13:01:27.113Z,195
2016-10-21T13:02:37.413Z,165
2016-10-21T13:03:47.721Z,155
2016-10-21T13:04:58.071Z,145
2016-10-21T13:06:08.083Z,130
2016-10-21T13:07:17.764Z,125
2016-10-21T13:08:27.748Z,115
2016-10-21T13:09:38.056Z,110
2016-10-21T13:10:48.373Z,105
2016-10-21T13:11:58.681Z,105
2016-10-21T13:13:08.385Z,100
2016-10-21T13:14:18.377Z,100
2016-10-21T13:15:28.690Z,100
2016-10-21T13:16:39.013Z,100
2016-10-21T13:17:48.992Z,100
2016-10-21T13:18:58.699Z,105
2016-10-21T13:20:09.035Z,105
2016-10-21T13:21:19.043Z,105
2016-10-21T13:22:29.333Z,110
2016-10-21T13:23:39.342Z,115
2016-10-21T13:24:49.336Z,110
2016-10-21T13:25:59.658Z,110
2016-10-21T13:27:09.959Z,110
2016-10-21T13:28:20.263Z,110
2016-10-21T13:29:30.587Z,115
2016-10-21T13:30:40.596Z,120
2016-10-21T13:31:50.600Z,130
2016-10-21T13:33:00.574Z,145
2016-10-21T13:34:10.876Z,150
2016-10-21T13:35:21.191Z,160
2016-10-21T13:36:31.539Z,165
2016-10-21T13:37:41.541Z,165
2016-10-21T13:38:51.576Z,160
2016-10-21T13:40:01.582Z,155
2016-10-21T13:41:11.935Z,145
2016-10-21T13:42:22.252Z,140
2016-10-21T13:43:31.631Z,130
2016-10-21T13:44:41.330Z,125
2016-10-21T13:45:51.631Z,120
2016-10-21T13:47:01.934Z,120
2016-10-21T13:48:12.245Z,115
2016-10-21T13:49:22.220Z,110
2016-10-21T13:50:32.539Z,110
2016-10-21T13:51:42.529Z,110
2016-10-21T13:52:52.831Z,110
2016-10-21T13:54:02.568Z,110
2016-10-21T13:55:12.911Z,115
2016-10-21T13:56:22.915Z,110
2016-10-21T13:57:32.924Z,120
2016-10-21T13:58:43.289Z,110
2016-10-21T13:59:53.837Z,110
2016-10-21T14:01:04.146Z,110
2016-10-21T14:02:14.184Z,110
2016-10-21T14:03:24.522Z,110
2016-10-21T14:04:34.840Z,110
2016-10-21T14:05:44.832Z,105
2016-10-21T14:06:55.132Z,105
2016-10-21T14:08:04.827Z,110
2016-10-21T14:09:14.855Z,100
2016-10-21T14:10:24.551Z,95
2016-10-21T14:11:34.528Z,95
2016-10-21T14:12:44.862Z,95
2016-10-21T14:13:55.184Z,90
2016-10-21T14:15:05.531Z,85
2016-10-21T14:16:15.515Z,85
2016-10-21T14:17:25.524Z,80
2016-10-21T14:18:35.833Z,80
2016-10-21T14:19:45.850Z,80
2016-10-21T14:20:55.853Z,75
2016-10-21T14:22:06.189Z,80
2016-10-21T14:23:16.493Z,75
2016-10-21T14:24:26.502Z,75
2016-10-21T14:25:36.813Z,75
2016-10-21T14:26:47.139Z,75
2016-10-21T14:27:57.458Z,80
2016-10-21T14:29:07.468Z,80
2016-10-21T14:30:17.151Z,75
2016-10-21T14:31:27.196Z,70
2016-10-21T14:32:37.244Z,70
2016-10-21T14:33:47.540Z,65
2016-10-21T14:34:57.552Z,70
2016-10-21T14:36:07.552Z,65
2016-10-21T14:37:17.551Z,65
2016-10-21T14:38:27.567Z,65
2016-10-21T14:39:37.884Z,65
2016-10-21T14:40:48.189Z,75
2016-10-21T14:41:57.898Z,80
2016-10-21T14:43:07.641Z,80
2016-10-21T14:44:17.957Z,60
2016-10-21T14:45:28.267Z,60
2016-10-21T14:46:38.456Z,60
2016-10-21T14:47:48.454Z,60
2016-10-21T14:48:58.461Z,55
2016-10-21T14:50:08.457Z,55
2016-10-21T14:51:18.783Z,50
2016-10-21T14:52:29.088Z,50
2016-10-21T14:53:39.092Z,50
2016-10-21T14:54:49.097Z,50
2016-10-21T14:55:59.408Z,45
2016-10-21T14:57:09.716Z,45
2016-10-21T14:58:20.024Z,45
2016-10-21T14:59:30.079Z,45
2016-10-21T15:00:40.378Z,40
2016-10-21T15:01:50.060Z,40
2016-10-21T15:03:00.358Z,40
2016-10-21T15:04:10.679Z,40
2016-10-21T15:05:20.964Z,35
2016-10-21T15:06:31.298Z,35
2016-10-21T15:07:41.592Z,35
2016-10-21T15:08:51.911Z,35
2016-10-21T15:10:01.906Z,30
2016-10-21T15:11:12.217Z,30
2016-10-21T15:12:22.526Z,30
2016-10-21T15:13:32.826Z,30
2016-10-21T15:14:42.821Z,25
2016-10-21T15:15:52.813Z,25
2016-10-21T15:17:03.109Z,25
2016-10-21T15:18:13.408Z,25
2016-10-21T15:19:23.406Z,20
2016-10-21T15:20:33.401Z,20
2016-10-21T15:21:43.397Z,20
2016-10-21T15:22:53.391Z,20
2016-10-21T15:24:03.406Z,20
2016-10-21T15:25:13.420Z,15
2016-10-21T15:26:23.123Z,15
2016-10-21T15:27:33.135Z,15
2016-10-21T15:28:43.440Z,15
2016-10-21T15:29:53.789Z,20
2016-10-21T15:31:03.473Z,20
2016-10-21T15:32:13.487Z,20
2016-10-21T15:33:23.503Z,20
2016-10-21T15:34:32.893Z,15
2016-10-21T15:35:43.214Z,15
2016-10-21T15:36:53.784Z,15
2016-10-21T15:38:04.075Z,10
2016-10-21T15:39:14.057Z,10
2016-10-21T15:40:24.063Z,10
2016-10-21T15:41:33.761Z,10
2016-10-21T15:42:44.084Z,10
2016-10-21T15:43:54.415Z,10
2016-10-21T15:45:04.757Z,5
2016-10-21T15:46:14.765Z,5
2016-10-21T15:47:25.062Z,5
2016-10-21T15:48:35.363Z,5
2016-10-21T15:49:45.678Z,5
2016-10-21T15:50:55.960Z,5
2016-10-21T15:52:06.276Z,5
2016-10-21T15:53:16.274Z,5
2016-10-21T15:54:26.594Z,0
2016-10-21T15:55:36.894Z,0
2016-10-21T15:56:47.204Z,0
2016-10-21T15:57:57.209Z,0
2016-10-21T15:59:07.507Z,0
2016-10-21T16:00:17.842Z,0
2016-10-21T16:01:27.834Z,0
2016-10-21T16:02:37.837Z,0
2016-10-21T16:03:48.157Z,0
2016-10-21T16:04:58.168Z,0
2016-10-21T16:06:08.176Z,0
2016-10-21T16:07:18.565Z,0
2016-10-21T16:08:28.875Z,0
2016-10-21T16:09:38.895Z,0
2016-10-21T16:10:49.212Z,0
2016-10-21T16:11:59.514Z,0
2016-10-21T16:13:09.544Z,0
2016-10-21T16:14:19.843Z,0
2016-10-21T16:15:30.187Z,0
2016-10-21T16:16:40.497Z,0
2016-10-21T16:17:50.517Z,0
2016-10-21T16:19:00.809Z,0
2016-10-21T16:20:11.138Z,0
2016-10-21T16:21:21.451Z,0
2016-10-21T16:22:30.841Z,0
2016-10-21T16:23:41.138Z,0
2016-10-21T16:24:50.834Z,0
2016-10-21T16:26:01.189Z,0
2016-10-21T16:27:10.870Z,0
2016-10-21T16:28:20.897Z,0
2016-10-21T16:29:30.895Z,0
2016-10-21T16:30:41.226Z,0
2016-10-21T16:31:51.568Z,0
2016-10-21T16:33:01.558Z,0
2016-10-21T16:34:11.870Z,0
2016-10-21T16:35:21.878Z,0
2016-10-21T16:36:32.184Z,0
2016-10-21T16:37:42.502Z,0
2016-10-21T16:38:52.821Z,0
2016-10-21T16:40:02.515Z,0
2016-10-21T16:41:12.837Z,0
2016-10-21T16:42:23.143Z,0
2016-10-21T16:43:32.840Z,0
2016-10-21T16:44:43.161Z,0
2016-10-21T16:45:53.488Z,0
2016-10-21T16:47:02.876Z,0
2016-10-21T16:48:12.851Z,0
2016-10-21T16:49:22.848Z,0
2016-10-21T16:50:33.344Z,0
2016-10-21T16:51:43.338Z,0
2016-10-21T16:52:53.636Z,0
2016-10-21T16:54:03.347Z,0
2016-10-21T16:55:13.654Z,0
2016-10-21T16:56:23.967Z,0
2016-10-21T16:57:34.267Z,0
2016-10-21T16:58:44.274Z,0
2016-10-21T16:59:54.589Z,0
2016-10-21T17:01:04.597Z,0
2016-10-21T17:02:14.571Z,0
2016-10-21T17:03:24.865Z,0
2016-10-21T17:04:35.399Z,0
2016-10-21T17:05:45.415Z,0
2016-10-21T17:06:55.428Z,0
2016-10-21T17:08:05.733Z,0
2016-10-21T17:09:16.080Z,0
2016-10-21T17:10:25.773Z,0
2016-10-21T17:11:35.773Z,0
2016-10-21T17:12:46.088Z,0
2016-10-21T17:13:56.413Z,0
2016-10-21T17:15:06.130Z,0